Time;durP1;ratioP1;P1;durP2;ratioP2;P2;SDS_P1;SDS_P2;PMS_P1;PMS_P2;Temp;Humidity;BMP_temperature;BMP_pressure;BME280_temperature;BME280_humidity;BME280_pressure;Samples;Min_cycle;Max_cycle;Signal;HPM_P1;HPM_P2
2022/06/05 00:01:48;;;;;;;6.25;4.65;;;;;;;18.04;57.39;101637.91;5036039;28;20048;-76
2022/06/05 00:04:40;;;;;;;6.75;4.20;;;;;;;18.02;57.52;101642.44;5040038;28;20048;-73
2022/06/05 00:07:21;;;;;;;8.95;4.15;;;;;;;17.97;57.58;101643.50;5035142;28;20093;-75
2022/06/05 00:09:51;;;;;;;6.18;4.20;;;;;;;17.92;57.94;101640.19;5033114;28;20583;-75
2022/06/05 00:12:23;;;;;;;6.15;4.30;;;;;;;17.91;58.03;101649.13;4991859;28;1103375;-78
2022/06/05 00:14:51;;;;;;;6.10;4.35;;;;;;;17.88;57.96;101640.41;5037736;28;20048;-75
2022/06/05 00:17:21;;;;;;;7.90;4.85;;;;;;;17.86;58.14;101635.13;5034627;28;20033;-76
2022/06/05 00:19:52;;;;;;;7.78;4.70;;;;;;;17.81;58.32;101634.50;5039974;28;20053;-75
2022/06/05 00:22:20;;;;;;;6.03;4.07;;;;;;;17.80;58.55;101635.44;5035014;28;20775;-76
2022/06/05 00:24:48;;;;;;;7.10;4.65;;;;;;;17.76;58.60;101623.19;5031040;28;20060;-75
2022/06/05 00:27:40;;;;;;;7.88;4.25;;;;;;;17.74;58.33;101612.59;5039578;28;20895;-74
2022/06/05 00:30:21;;;;;;;5.70;4.32;;;;;;;17.73;58.65;101607.34;5039701;28;20068;-74
2022/06/05 00:33:17;;;;;;;7.40;4.68;;;;;;;17.73;58.63;101605.53;5037038;28;20041;-73
2022/06/05 00:35:56;;;;;;;7.78;5.00;;;;;;;17.63;58.95;101601.59;5032518;28;20064;-78
2022/06/05 00:39:04;;;;;;;7.47;5.15;;;;;;;17.59;58.99;101594.69;5036583;28;20157;-77
2022/06/05 00:41:58;;;;;;;6.15;4.47;;;;;;;17.58;59.08;101592.97;5032490;28;20056;-79
2022/06/05 00:44:34;;;;;;;7.88;4.82;;;;;;;17.54;59.08;101586.91;5036064;28;20038;-78
2022/06/05 00:47:08;;;;;;;7.38;4.50;;;;;;;17.49;59.17;101596.91;5036179;28;20046;-78
2022/06/05 00:50:16;;;;;;;6.40;4.20;;;;;;;17.45;59.22;101596.19;5040682;28;20049;-77
2022/06/05 00:52:50;;;;;;;7.65;4.70;;;;;;;17.37;59.61;101601.03;5036703;28;21651;-78
2022/06/05 00:55:17;;;;;;;8.18;4.45;;;;;;;17.32;59.71;101603.91;5040911;28;20047;-76
2022/06/05 00:57:47;;;;;;;6.30;4.30;;;;;;;17.31;59.87;101610.19;5038808;28;20037;-75
2022/06/05 01:00:22;;;;;;;7.18;4.82;;;;;;;17.24;59.89;101603.41;5035063;28;20512;-75
2022/06/05 01:02:55;;;;;;;7.53;4.80;;;;;;;17.19;59.96;101606.28;5037648;28;20120;-80
2022/06/05 01:05:26;;;;;;;6.55;5.10;;;;;;;17.17;60.02;101602.81;5036317;28;20060;-79
2022/06/05 01:07:56;;;;;;;6.88;4.72;;;;;;;17.15;60.07;101595.81;5033950;28;20124;-79
2022/06/05 01:10:43;;;;;;;6.18;4.80;;;;;;;17.12;60.07;101588.00;5034321;28;20510;-80
2022/06/05 01:13:44;;;;;;;9.77;4.82;;;;;;;17.10;60.33;101592.50;5041182;28;20061;-79
2022/06/05 01:16:49;;;;;;;6.75;4.90;;;;;;;17.08;60.22;101592.59;5031782;28;20050;-79
2022/06/05 01:19:41;;;;;;;7.32;4.90;;;;;;;17.04;60.32;101596.31;5032168;28;20042;-81
2022/06/05 01:22:20;;;;;;;7.82;5.00;;;;;;;16.98;60.50;101592.13;5031189;28;20125;-80
2022/06/05 01:25:17;;;;;;;6.38;4.82;;;;;;;16.98;60.58;101584.16;5037782;28;20047;-77
2022/06/05 01:27:55;;;;;;;6.47;4.75;;;;;;;17.01;60.31;101581.34;5040508;28;20531;-79
2022/06/05 01:30:24;;;;;;;7.18;5.00;;;;;;;16.93;60.75;101583.47;5035426;28;20046;-79
2022/06/05 01:33:07;;;;;;;8.13;4.50;;;;;;;16.89;60.67;101587.19;5055586;28;20053;-76
2022/06/05 01:36:04;;;;;;;8.02;5.30;;;;;;;16.88;60.62;101575.69;5035224;28;20050;-75
2022/06/05 01:39:01;;;;;;;7.80;4.88;;;;;;;16.83;60.80;101568.84;5036830;28;20045;-74
2022/06/05 01:41:54;;;;;;;7.15;4.80;;;;;;;16.83;60.84;101558.19;5040257;28;20034;-72
2022/06/05 01:44:35;;;;;;;9.50;4.95;;;;;;;16.79;60.86;101559.25;5037197;28;20072;-73
2022/06/05 01:47:29;;;;;;;9.32;5.22;;;;;;;16.70;61.27;101557.88;5027349;28;20108;-73
2022/06/05 01:50:10;;;;;;;9.52;5.20;;;;;;;16.70;61.33;101555.19;5037239;28;20042;-72
2022/06/05 01:52:47;;;;;;;7.72;4.53;;;;;;;16.67;61.32;101556.22;5035057;28;20042;-73
2022/06/05 01:55:25;;;;;;;6.90;5.13;;;;;;;16.62;61.45;101558.22;5029569;28;20038;-74
2022/06/05 01:57:59;;;;;;;5.85;4.70;;;;;;;16.60;61.47;101560.94;5030504;28;20038;-74
2022/06/05 02:00:26;;;;;;;6.63;4.70;;;;;;;16.57;61.54;101560.22;5036222;28;20045;-73
2022/06/05 02:03:01;;;;;;;6.82;4.68;;;;;;;16.56;61.43;101551.38;5031497;28;20137;-73
2022/06/05 02:05:38;;;;;;;7.93;4.97;;;;;;;16.55;61.41;101543.44;5030027;28;20057;-73
2022/06/05 02:08:17;;;;;;;7.00;4.70;;;;;;;16.56;61.43;101532.75;5031870;28;20081;-77
2022/06/05 02:10:55;;;;;;;9.60;5.18;;;;;;;16.54;61.58;101539.03;5032204;28;20888;-78
2022/06/05 02:13:22;;;;;;;9.20;4.63;;;;;;;16.51;61.54;101531.22;5038475;28;20058;-78
2022/06/05 02:15:49;;;;;;;8.40;4.78;;;;;;;16.46;61.66;101521.63;5037280;28;20631;-79
2022/06/05 02:18:20;;;;;;;7.80;5.10;;;;;;;16.41;61.93;101514.78;5031400;28;20038;-77
2022/06/05 02:20:48;;;;;;;7.70;5.05;;;;;;;16.38;62.06;101512.28;5035086;28;20041;-77
2022/06/05 02:23:24;;;;;;;7.40;4.90;;;;;;;16.36;62.08;101500.84;5033853;28;20108;-77
2022/06/05 02:25:51;;;;;;;8.00;5.00;;;;;;;16.37;62.12;101491.91;5028414;28;20503;-77
2022/06/05 02:28:21;;;;;;;12.95;4.97;;;;;;;16.32;62.21;101486.81;5029021;28;20049;-77
2022/06/05 02:31:02;;;;;;;5.82;4.75;;;;;;;16.34;62.15;101482.25;5036239;28;20064;-78
2022/06/05 02:34:22;;;;;;;6.60;4.70;;;;;;;16.29;62.37;101479.81;5038520;28;20109;-78
2022/06/05 02:37:04;;;;;;;10.13;5.30;;;;;;;16.29;62.24;101473.63;5035226;28;20046;-77
2022/06/05 02:39:59;;;;;;;8.55;5.07;;;;;;;16.19;62.76;101467.84;5034055;28;20037;-76
2022/06/05 02:42:44;;;;;;;8.77;5.40;;;;;;;16.14;63.08;101462.72;5034712;28;20069;-77
2022/06/05 02:45:38;;;;;;;9.07;5.45;;;;;;;16.13;63.19;101453.00;5033533;28;20041;-77
2022/06/05 02:48:25;;;;;;;7.20;5.53;;;;;;;16.09;63.24;101443.47;5033467;28;20049;-74
2022/06/05 02:51:30;;;;;;;8.55;5.43;;;;;;;16.04;63.61;101444.59;5031957;28;20041;-75
2022/06/05 02:53:59;;;;;;;8.05;5.72;;;;;;;16.03;63.56;101442.84;5034020;28;21147;-76
2022/06/05 02:56:31;;;;;;;9.38;5.57;;;;;;;15.99;63.66;101434.16;5029338;28;20046;-77
2022/06/05 02:59:03;;;;;;;8.13;5.65;;;;;;;15.96;63.72;101428.97;5031845;28;20080;-77
2022/06/05 03:04:17;;;;;;;7.35;5.38;;;;;;;15.92;63.73;101406.97;5033951;28;20050;-79
2022/06/05 03:06:44;;;;;;;6.28;5.20;;;;;;;15.93;63.67;101410.47;5034063;28;20068;-78
2022/06/05 03:09:11;;;;;;;9.05;5.35;;;;;;;15.90;63.69;101410.63;5032985;28;20042;-75
2022/06/05 03:11:42;;;;;;;9.02;5.20;;;;;;;15.89;63.84;101408.91;5037792;28;20049;-75
2022/06/05 03:14:10;;;;;;;8.02;6.05;;;;;;;15.84;63.75;101401.97;5035843;28;20627;-75
2022/06/05 03:16:37;;;;;;;8.15;5.72;;;;;;;15.82;63.92;101402.94;5035320;28;20045;-74
2022/06/05 03:19:04;;;;;;;12.15;5.70;;;;;;;15.78;64.19;101394.25;5038043;28;20056;-74
2022/06/05 03:21:33;;;;;;;9.50;6.00;;;;;;;15.77;64.08;101399.63;5036928;28;20554;-75
2022/06/05 03:24:01;;;;;;;9.68;5.80;;;;;;;15.78;64.14;101396.91;5039274;28;20506;-76
2022/06/05 03:26:29;;;;;;;9.65;6.10;;;;;;;15.73;64.17;101393.56;5033582;28;20550;-76
2022/06/05 03:28:57;;;;;;;8.88;6.10;;;;;;;15.73;64.21;101390.06;5035598;28;20041;-76
2022/06/05 03:31:24;;;;;;;9.88;5.72;;;;;;;15.72;64.18;101398.97;5034551;28;20037;-77
2022/06/05 03:34:01;;;;;;;7.30;5.43;;;;;;;15.71;64.19;101403.41;5037123;28;20038;-79
2022/06/05 03:36:28;;;;;;;9.93;5.68;;;;;;;15.72;64.29;101402.47;5036356;28;20049;-77
2022/06/05 03:38:58;;;;;;;7.95;5.57;;;;;;;15.74;64.27;101403.28;5036881;28;20042;-76
2022/06/05 03:41:25;;;;;;;8.40;5.80;;;;;;;15.75;64.13;101405.00;5034702;28;20518;-77
2022/06/05 03:43:53;;;;;;;8.27;5.15;;;;;;;15.77;64.22;101399.63;5034320;28;20049;-76
2022/06/05 03:46:20;;;;;;;8.50;5.50;;;;;;;15.78;64.27;101390.69;5038831;28;20168;-77
2022/06/05 03:48:47;;;;;;;9.50;5.88;;;;;;;15.75;64.26;101394.38;5034435;28;20045;-76
2022/06/05 03:51:21;;;;;;;11.13;5.97;;;;;;;15.73;64.84;101390.91;5032555;28;20452;-77
2022/06/05 03:53:49;;;;;;;7.10;5.25;;;;;;;15.73;64.41;101396.22;5033879;28;20047;-77
2022/06/05 03:56:20;;;;;;;7.82;5.65;;;;;;;15.72;64.57;101398.97;5037283;28;20927;-77
2022/06/05 03:58:50;;;;;;;7.68;5.50;;;;;;;15.76;64.52;101405.88;5037343;28;20049;-79
2022/06/05 04:01:22;;;;;;;10.57;6.25;;;;;;;15.73;64.64;101416.63;5040627;28;20046;-78
2022/06/05 04:03:51;;;;;;;8.07;5.68;;;;;;;15.72;64.85;101415.75;5038985;28;20038;-79
2022/06/05 04:06:29;;;;;;;9.27;6.13;;;;;;;15.74;64.84;101413.06;5042136;28;20046;-78
2022/06/05 04:09:05;;;;;;;8.63;5.80;;;;;;;15.72;64.77;101404.28;5038853;28;20049;-78
2022/06/05 04:11:35;;;;;;;9.77;6.18;;;;;;;15.72;64.76;101405.13;5051523;28;20081;-78
2022/06/05 04:14:04;;;;;;;9.73;6.18;;;;;;;15.74;64.83;101394.44;5050305;28;20041;-79
2022/06/05 04:16:35;;;;;;;8.82;5.82;;;;;;;15.81;64.58;101395.91;5058746;28;20386;-78
2022/06/05 04:19:04;;;;;;;9.35;6.05;;;;;;;15.80;64.64;101389.72;5061074;28;20034;-79
2022/06/05 04:21:35;;;;;;;11.50;5.95;;;;;;;15.80;64.61;101400.38;5046157;28;20050;-77
2022/06/05 04:24:04;;;;;;;9.80;5.97;;;;;;;15.78;64.76;101399.56;5040984;28;20038;-78
2022/06/05 04:26:34;;;;;;;8.43;5.75;;;;;;;15.78;64.90;101394.25;5041880;28;20034;-78
2022/06/05 04:29:02;;;;;;;8.50;6.35;;;;;;;15.81;64.77;101385.25;5036105;28;20053;-78
2022/06/05 04:31:37;;;;;;;12.75;5.65;;;;;;;15.80;64.89;101387.06;5060324;28;20038;-74
2022/06/05 04:34:09;;;;;;;9.68;5.82;;;;;;;15.86;64.70;101387.75;5034896;28;20491;-75
2022/06/05 04:36:37;;;;;;;9.07;5.55;;;;;;;15.86;64.84;101396.59;5033001;28;20042;-73
2022/06/05 04:39:05;;;;;;;7.40;5.80;;;;;;;15.83;64.87;101399.34;5038406;28;20039;-74
2022/06/05 04:41:32;;;;;;;7.93;5.90;;;;;;;15.84;64.87;101396.66;5039579;28;20050;-81
2022/06/05 04:44:00;;;;;;;8.93;6.10;;;;;;;15.87;64.75;101403.66;5032943;28;22239;-79
2022/06/05 04:46:29;;;;;;;9.88;5.82;;;;;;;15.88;64.96;101407.16;5037501;28;20763;-78
2022/06/05 04:48:58;;;;;;;12.30;6.78;;;;;;;15.89;64.77;101400.91;5039532;28;20045;-78
2022/06/05 04:51:27;;;;;;;9.15;5.85;;;;;;;15.90;64.79;101394.69;5037306;28;20053;-78
2022/06/05 04:53:56;;;;;;;10.25;6.53;;;;;;;15.89;64.95;101399.13;5039069;28;20091;-79
2022/06/05 04:56:26;;;;;;;7.38;5.70;;;;;;;15.94;64.90;101396.25;5038912;28;20045;-76
2022/06/05 04:58:54;;;;;;;8.27;5.70;;;;;;;15.97;64.74;101396.13;5040381;28;20045;-75
2022/06/05 05:01:32;;;;;;;8.82;6.22;;;;;;;15.96;64.63;101400.59;5040081;28;20048;-75
2022/06/05 05:04:04;;;;;;;9.13;5.75;;;;;;;15.96;64.64;101394.41;5039235;28;20077;-75
2022/06/05 05:06:34;;;;;;;9.15;6.00;;;;;;;15.94;64.99;101388.28;5045314;28;20042;-78
2022/06/05 05:09:03;;;;;;;10.60;6.00;;;;;;;16.00;64.48;101385.38;5046393;28;20041;-76
2022/06/05 05:11:31;;;;;;;8.98;6.00;;;;;;;15.95;64.82;101385.56;5039875;28;20041;-77
2022/06/05 05:13:59;;;;;;;10.40;6.43;;;;;;;15.94;65.01;101383.84;5044818;28;20054;-77
2022/06/05 05:16:29;;;;;;;10.55;6.28;;;;;;;15.98;64.75;101388.06;5040463;28;20431;-74
2022/06/05 05:19:09;;;;;;;8.35;6.10;;;;;;;15.99;64.81;101389.81;5032955;28;20783;-73
2022/06/05 05:21:37;;;;;;;9.38;6.20;;;;;;;15.98;64.90;101392.53;5034582;28;20041;-75
2022/06/05 05:24:07;;;;;;;8.00;6.15;;;;;;;16.03;64.67;101402.97;5035799;28;20720;-76
2022/06/05 05:26:35;;;;;;;9.40;6.10;;;;;;;15.98;65.18;101404.03;5039134;28;20105;-76
2022/06/05 05:29:04;;;;;;;8.95;5.93;;;;;;;15.98;65.16;101408.50;5037555;28;20037;-75
2022/06/05 05:31:36;;;;;;;10.52;6.65;;;;;;;16.02;65.10;101419.84;5043239;28;20057;-80
2022/06/05 05:34:05;;;;;;;11.13;7.00;;;;;;;16.04;65.20;101412.69;5041261;28;20046;-76
2022/06/05 05:36:34;;;;;;;8.07;6.35;;;;;;;16.05;65.00;101415.25;5035563;28;20049;-77
2022/06/05 05:42:04;;;;;;;7.60;5.80;;;;;;;16.17;64.81;101418.31;5037348;28;20069;-77
2022/06/05 05:44:45;;;;;;;6.65;5.43;;;;;;;16.21;64.42;101404.78;5043553;28;20045;-77
2022/06/05 05:47:23;;;;;;;8.27;6.60;;;;;;;16.29;64.73;101407.13;5036541;28;20042;-77
2022/06/05 05:49:53;;;;;;;8.68;6.43;;;;;;;16.37;64.37;101399.66;5034557;28;20172;-72
2022/06/05 05:52:21;;;;;;;9.00;6.18;;;;;;;16.41;64.08;101406.56;5029900;28;20041;-74
2022/06/05 05:54:49;;;;;;;8.07;6.55;;;;;;;16.45;64.33;101394.81;5037080;28;20518;-75
2022/06/05 05:57:18;;;;;;;9.60;6.57;;;;;;;16.52;64.11;101402.56;5035116;28;20045;-75
2022/06/05 05:59:47;;;;;;;10.73;6.10;;;;;;;16.58;64.11;101397.78;5037958;28;20138;-75
2022/06/05 06:02:21;;;;;;;8.05;5.90;;;;;;;16.70;63.52;101396.34;5029467;28;20091;-74
2022/06/05 06:04:51;;;;;;;8.88;5.88;;;;;;;16.72;64.04;101388.28;5033832;28;20670;-74
2022/06/05 06:07:20;;;;;;;8.98;6.40;;;;;;;16.84;63.38;101386.84;5028987;28;20056;-74
2022/06/05 06:09:47;;;;;;;10.93;6.38;;;;;;;16.94;62.97;101382.81;5032925;28;20045;-74
2022/06/05 06:12:24;;;;;;;7.65;5.82;;;;;;;16.99;62.97;101380.81;5032267;28;20464;-73
2022/06/05 06:14:52;;;;;;;9.95;6.30;;;;;;;17.04;63.10;101385.91;5034613;28;20868;-74
2022/06/05 06:17:20;;;;;;;6.45;5.60;;;;;;;17.17;62.78;101386.16;5044442;28;20057;-73
2022/06/05 06:19:49;;;;;;;7.47;5.75;;;;;;;17.28;62.05;101382.97;5032660;28;20041;-74
2022/06/05 06:22:18;;;;;;;6.53;5.60;;;;;;;17.31;62.09;101377.47;5031013;28;20054;-72
2022/06/05 06:24:46;;;;;;;7.53;5.65;;;;;;;17.44;61.56;101373.25;5041685;28;20122;-73
2022/06/05 06:27:16;;;;;;;7.78;5.72;;;;;;;17.43;61.53;101378.69;5032865;28;20089;-73
2022/06/05 06:29:44;;;;;;;7.22;5.97;;;;;;;17.43;61.36;101368.03;5045297;28;20500;-72
2022/06/05 06:32:11;;;;;;;10.30;6.00;;;;;;;17.50;61.23;101362.28;5038891;28;20053;-73
2022/06/05 06:34:38;;;;;;;6.40;5.53;;;;;;;17.53;61.34;101363.94;5029654;28;20104;-73
2022/06/05 06:37:06;;;;;;;10.35;6.18;;;;;;;17.60;60.94;101361.84;5027768;28;20041;-73
2022/06/05 06:39:33;;;;;;;8.23;6.20;;;;;;;17.58;61.33;101356.56;5033984;28;20041;-72
2022/06/05 06:42:01;;;;;;;7.25;5.35;;;;;;;17.64;61.22;101358.03;5049099;28;20073;-73
2022/06/05 06:44:28;;;;;;;7.28;5.45;;;;;;;17.65;61.41;101351.78;5047646;28;20042;-74
2022/06/05 06:46:55;;;;;;;8.15;5.70;;;;;;;17.76;60.51;101349.41;5049816;28;20052;-73
2022/06/05 06:49:22;;;;;;;7.47;5.78;;;;;;;17.77;61.17;101345.81;5051252;28;20042;-72
2022/06/05 06:51:50;;;;;;;6.65;5.65;;;;;;;17.90;60.72;101339.84;5047641;28;20042;-72
2022/06/05 06:54:17;;;;;;;6.80;5.55;;;;;;;18.02;60.40;101333.84;5039488;28;20042;-72
2022/06/05 06:56:45;;;;;;;6.35;5.68;;;;;;;18.05;60.49;101323.03;5047458;28;20033;-72
2022/06/05 06:59:20;;;;;;;6.43;5.38;;;;;;;18.12;60.27;101312.88;5050679;28;20038;-73
2022/06/05 07:01:47;;;;;;;8.20;5.78;;;;;;;18.23;59.94;101314.94;5046587;28;20045;-72
2022/06/05 07:04:17;;;;;;;6.07;5.10;;;;;;;18.36;59.60;101312.47;5038099;28;20040;-73
2022/06/05 07:06:44;;;;;;;6.30;5.20;;;;;;;18.49;58.97;101308.16;5040100;28;20082;-74
2022/06/05 07:09:14;;;;;;;6.22;5.32;;;;;;;18.57;58.86;101308.56;5047461;28;20042;-74
2022/06/05 07:11:42;;;;;;;7.18;4.97;;;;;;;18.59;59.34;101298.69;5051959;28;20045;-73
2022/06/05 07:14:10;;;;;;;6.15;5.40;;;;;;;18.69;58.81;101293.69;5049187;28;20189;-74
2022/06/05 07:16:38;;;;;;;7.22;5.40;;;;;;;18.80;58.26;101287.72;5052527;28;20045;-73
2022/06/05 07:19:07;;;;;;;7.22;5.18;;;;;;;18.85;58.69;101282.97;5049150;28;20057;-74
2022/06/05 07:21:34;;;;;;;6.20;5.10;;;;;;;19.06;57.88;101277.34;5050042;28;20049;-73
2022/06/05 07:24:02;;;;;;;5.88;4.90;;;;;;;19.20;57.20;101272.03;5044533;28;20080;-74
2022/06/05 07:26:32;;;;;;;7.32;5.35;;;;;;;19.30;57.34;101267.00;5042957;28;20033;-73
2022/06/05 07:29:00;;;;;;;7.07;5.18;;;;;;;19.40;57.53;101256.59;5045795;28;20115;-73
2022/06/05 07:31:29;;;;;;;5.68;4.85;;;;;;;19.66;56.33;101244.28;5044216;28;20124;-74
2022/06/05 07:33:59;;;;;;;8.57;5.28;;;;;;;19.78;56.07;101242.69;5047438;28;20056;-73
2022/06/05 07:36:28;;;;;;;6.47;5.30;;;;;;;19.94;55.48;101234.56;5043858;28;20048;-73
2022/06/05 07:38:56;;;;;;;7.50;5.30;;;;;;;20.00;56.19;101244.88;5050988;28;20419;-73
2022/06/05 07:41:33;;;;;;;7.35;5.15;;;;;;;20.14;55.82;101244.00;5052288;28;20550;-71
2022/06/05 07:44:00;;;;;;;6.85;4.63;;;;;;;20.28;55.79;101235.06;5050178;28;20044;-73
2022/06/05 07:46:30;;;;;;;6.03;5.07;;;;;;;20.53;54.48;101244.19;5053018;28;20431;-72
2022/06/05 07:48:58;;;;;;;5.70;5.10;;;;;;;20.58;54.79;101244.72;5051422;28;20496;-74
2022/06/05 07:54:27;;;;;;;5.93;5.10;;;;;;;20.75;54.18;101224.88;5044035;28;20052;-73
2022/06/05 07:57:07;;;;;;;6.88;5.15;;;;;;;20.81;54.00;101215.56;5051531;28;20061;-73
2022/06/05 07:59:39;;;;;;;6.15;4.95;;;;;;;20.86;53.95;101218.78;5051947;28;20052;-72
2022/06/05 08:02:22;;;;;;;6.68;5.35;;;;;;;20.95;53.52;101217.31;5047138;28;20121;-74
2022/06/05 08:04:52;;;;;;;6.68;5.20;;;;;;;20.97;53.90;101212.69;5052201;28;20899;-72
2022/06/05 08:07:24;;;;;;;6.38;4.90;;;;;;;21.04;53.71;101210.47;5052167;28;20045;-73
2022/06/05 08:09:52;;;;;;;6.75;5.10;;;;;;;21.08;53.61;101207.47;5047757;28;20080;-73
2022/06/05 08:12:23;;;;;;;5.85;5.18;;;;;;;21.20;53.35;101213.78;5047800;28;20072;-73
2022/06/05 08:14:52;;;;;;;6.03;5.45;;;;;;;21.28;53.30;101207.03;5046298;28;20049;-72
2022/06/05 08:17:30;;;;;;;6.13;4.88;;;;;;;21.36;53.27;101196.66;5049503;28;20067;-73
2022/06/05 08:20:01;;;;;;;7.70;5.10;;;;;;;21.47;53.06;101198.56;5050277;28;20519;-73
2022/06/05 08:22:29;;;;;;;5.43;4.93;;;;;;;21.51;52.88;101192.88;5052198;28;20884;-74
2022/06/05 08:24:56;;;;;;;5.60;5.00;;;;;;;21.59;53.15;101196.84;5050541;28;20046;-73
2022/06/05 08:27:27;;;;;;;6.45;4.80;;;;;;;21.68;52.82;101190.81;5052007;28;20512;-73
2022/06/05 08:29:56;;;;;;;5.38;4.80;;;;;;;21.77;52.66;101190.19;5030207;28;20496;-72
2022/06/05 08:32:28;;;;;;;5.18;4.57;;;;;;;21.85;53.12;101192.28;5046820;28;20069;-74
2022/06/05 08:34:57;;;;;;;6.85;4.97;;;;;;;22.02;52.35;101186.56;5049259;28;20040;-74
2022/06/05 08:43:43;;;;;;;6.80;5.18;;;;;;;22.54;51.67;101189.03;5033480;28;20046;-72
2022/06/05 08:46:28;;;;;;;6.03;5.30;;;;;;;22.74;50.53;101184.81;5014046;28;20061;-73
2022/06/05 08:49:41;;;;;;;6.68;4.70;;;;;;;22.97;49.80;101179.50;5032936;28;20070;-73
2022/06/05 08:52:46;;;;;;;5.32;4.78;;;;;;;23.15;49.14;101184.44;5034867;28;20109;-74
2022/06/05 08:55:30;;;;;;;5.28;4.78;;;;;;;23.20;50.43;101185.81;5041062;28;20054;-73
2022/06/05 08:58:23;;;;;;;5.50;5.00;;;;;;;23.31;49.94;101176.88;5052290;28;20049;-75
2022/06/05 09:01:00;;;;;;;5.00;4.20;;;;;;;23.40;49.17;101181.53;5039533;28;20042;-74
2022/06/05 09:03:33;;;;;;;5.28;4.78;;;;;;;23.45;48.49;101194.63;5051404;28;20506;-74
2022/06/05 09:06:12;;;;;;;4.95;4.32;;;;;;;23.41;48.77;101190.47;5038485;28;20038;-77
2022/06/05 09:08:43;;;;;;;6.40;4.47;;;;;;;23.52;48.86;101192.28;5052488;28;20103;-77
2022/06/05 09:11:28;;;;;;;6.43;4.57;;;;;;;23.57;48.42;101195.47;5047437;28;20041;-78
2022/06/05 09:14:16;;;;;;;7.30;4.28;;;;;;;23.54;48.87;101187.66;5038123;28;20078;-77
2022/06/05 09:16:52;;;;;;;5.00;4.50;;;;;;;23.61;49.31;101179.94;5033801;28;20486;-77
2022/06/05 09:19:26;;;;;;;7.45;4.80;;;;;;;23.68;49.45;101183.84;5036384;28;20049;-78
2022/06/05 09:22:11;;;;;;;5.65;4.80;;;;;;;23.69;49.74;101186.44;5045688;28;20037;-77
2022/06/05 09:25:06;;;;;;;5.55;4.95;;;;;;;23.72;49.42;101191.53;5041122;28;20123;-76
2022/06/05 09:28:08;;;;;;;5.93;4.97;;;;;;;23.71;49.75;101187.13;5046668;28;20046;-76
2022/06/05 09:30:52;;;;;;;26.67;5.78;;;;;;;23.64;50.11;101185.09;5037474;28;20044;-76
2022/06/05 09:33:30;;;;;;;5.55;5.03;;;;;;;23.59;49.09;101174.69;5041776;28;20041;-76
2022/06/05 09:36:07;;;;;;;5.47;4.85;;;;;;;23.49;49.67;101165.66;5035863;28;20034;-76
2022/06/05 09:38:52;;;;;;;6.47;5.18;;;;;;;23.40;49.86;101169.91;5046480;28;20388;-77
2022/06/05 09:42:21;;;;;;;6.80;5.18;;;;;;;23.34;50.02;101167.75;5042254;28;20045;-76
2022/06/05 09:45:22;;;;;;;6.38;5.78;;;;;;;23.23;50.67;101169.44;5042898;28;20037;-77
2022/06/05 09:48:33;;;;;;;8.35;5.50;;;;;;;23.12;51.19;101161.34;5038487;28;20500;-76
2022/06/05 09:51:08;;;;;;;7.55;6.00;;;;;;;23.03;51.18;101156.69;5040682;28;20058;-77
2022/06/05 09:53:45;;;;;;;5.70;5.20;;;;;;;22.95;51.38;101154.59;5037660;28;20046;-78
2022/06/05 10:00:09;;;;;;;5.78;5.22;;;;;;;22.82;52.35;101151.13;5045073;28;20049;-77
2022/06/05 10:02:37;;;;;;;6.18;5.57;;;;;;;22.80;53.04;101144.03;5034238;28;20413;-77
2022/06/05 10:05:23;;;;;;;6.55;5.95;;;;;;;22.89;53.14;101139.78;5041280;28;20050;-76
2022/06/05 10:08:04;;;;;;;7.40;5.80;;;;;;;22.94;53.02;101140.25;5044687;28;20049;-77
2022/06/05 10:10:39;;;;;;;6.97;5.78;;;;;;;22.93;53.08;101133.22;5044929;28;20091;-76
2022/06/05 10:13:40;;;;;;;7.53;6.57;;;;;;;22.93;52.60;101137.72;5038641;28;20888;-75
2022/06/05 10:16:26;;;;;;;6.10;5.50;;;;;;;22.82;53.63;101135.00;5046126;28;20559;-76
2022/06/05 10:19:23;;;;;;;8.20;5.88;;;;;;;22.79;53.89;101145.00;5040574;28;20053;-76
2022/06/05 10:22:07;;;;;;;7.72;6.45;;;;;;;22.76;53.96;101141.72;5037652;28;20040;-77
2022/06/05 10:24:34;;;;;;;7.50;6.30;;;;;;;22.69;53.86;101135.09;5047623;28;20045;-75
2022/06/05 10:27:04;;;;;;;7.25;6.55;;;;;;;22.60;54.01;101137.53;5047376;28;20108;-76
2022/06/05 10:29:39;;;;;;;7.53;5.78;;;;;;;22.49;54.16;101137.50;5048531;28;20033;-76
2022/06/05 10:33:00;;;;;;;7.15;6.10;;;;;;;22.31;54.52;101129.84;5049551;28;20527;-77
2022/06/05 10:35:53;;;;;;;9.98;6.80;;;;;;;;;;5049817;28;20041;-77
2022/06/05 10:38:36;;;;;;;7.90;7.10;;;;;;;22.00;55.17;101118.72;5048265;28;20073;-78
2022/06/05 10:41:30;;;;;;;9.07;6.88;;;;;;;21.88;55.36;101114.25;5047418;28;20125;-75
2022/06/05 10:44:21;;;;;;;7.80;6.43;;;;;;;21.81;55.80;101124.56;5048821;28;20833;-77
2022/06/05 10:46:51;;;;;;;9.98;6.95;;;;;;;21.77;56.14;101123.09;5049167;28;20038;-76
2022/06/05 10:49:32;;;;;;;8.60;6.80;;;;;;;21.70;56.32;101125.38;5051034;28;20530;-75
2022/06/05 10:52:14;;;;;;;8.63;6.35;;;;;;;21.65;56.75;101132.03;5057959;28;20100;-76
2022/06/05 10:54:54;;;;;;;7.68;6.68;;;;;;;21.62;56.64;101130.41;5064013;28;20088;-76
2022/06/05 10:57:39;;;;;;;8.40;6.55;;;;;;;21.61;57.23;101128.72;5064395;28;20026;-77
2022/06/05 11:00:21;;;;;;;7.60;6.90;;;;;;;21.63;57.19;101125.94;5072028;28;20029;-76
2022/06/05 11:03:04;;;;;;;7.40;6.57;;;;;;;21.65;57.36;101118.63;5052353;28;20069;-76
2022/06/05 11:06:10;;;;;;;7.32;6.63;;;;;;;21.66;57.13;101120.34;5052367;28;20053;-78
2022/06/05 11:09:35;;;;;;;7.70;5.90;;;;;;;21.66;57.79;101123.03;5051982;28;20046;-76
2022/06/05 11:15:23;;;;;;;7.38;6.40;;;;;;;21.60;58.28;101105.56;5047735;28;20120;-78
2022/06/05 11:18:11;;;;;;;7.63;6.20;;;;;;;21.56;58.82;101109.38;5043716;28;20530;-76
2022/06/05 11:20:49;;;;;;;9.32;5.72;;;;;;;21.50;58.85;101104.47;5051278;28;20927;-78
2022/06/05 11:23:26;;;;;;;7.97;6.15;;;;;;;21.42;58.64;101099.66;5048611;28;20859;-78
2022/06/05 11:26:33;;;;;;;7.65;6.78;;;;;;;21.36;59.67;101105.47;5048418;28;20104;-75
2022/06/05 11:29:26;;;;;;;8.43;6.47;;;;;;;21.19;62.22;101125.44;5046986;28;20057;-75
2022/06/05 11:32:14;;;;;;;8.90;8.00;;;;;;;20.96;63.73;101114.50;5048368;28;20140;-75
2022/06/05 11:35:17;;;;;;;8.35;7.55;;;;;;;20.75;66.42;101115.03;5047344;28;20072;-76
2022/06/05 11:37:50;;;;;;;8.32;7.53;;;;;;;20.53;67.76;101112.97;5049522;28;20038;-76
2022/06/05 11:40:32;;;;;;;8.95;8.05;;;;;;;20.35;69.94;101112.38;5046578;28;20046;-76
2022/06/05 11:43:28;;;;;;;9.68;8.68;;;;;;;20.12;69.72;101113.94;5041419;28;20052;-74
2022/06/05 11:46:32;;;;;;;12.93;8.77;;;;;;;19.89;71.52;101100.25;5049333;28;20507;-75
2022/06/05 11:49:05;;;;;;;10.57;9.45;;;;;;;19.78;72.00;101097.38;5039725;28;20055;-75
2022/06/05 11:52:13;;;;;;;12.65;9.95;;;;;;;19.69;72.58;101102.38;5045484;28;20045;-73
2022/06/05 11:54:57;;;;;;;11.32;9.68;;;;;;;19.63;73.48;101096.56;5048571;28;20106;-73
2022/06/05 11:57:47;;;;;;;11.43;10.10;;;;;;;19.55;74.70;101078.31;5046829;28;20045;-74
2022/06/05 12:00:21;;;;;;;11.07;9.45;;;;;;;19.50;76.55;101081.28;5046974;28;20121;-75
2022/06/05 12:02:59;;;;;;;11.35;10.13;;;;;;;19.44;76.99;101079.03;5048748;28;20037;-74
2022/06/05 12:06:05;;;;;;;12.50;9.55;;;;;;;19.41;77.65;101073.88;5048784;28;20112;-74
2022/06/05 12:08:39;;;;;;;8.90;8.10;;;;;;;19.31;77.91;101072.75;5030039;28;20088;-72
2022/06/05 12:11:18;;;;;;;8.75;7.63;;;;;;;19.20;78.14;101065.41;5047723;28;20096;-72
2022/06/05 12:14:46;;;;;;;7.72;6.93;;;;;;;19.15;79.42;101059.50;5048687;28;20057;-74
2022/06/05 12:17:23;;;;;;;8.43;7.38;;;;;;;19.17;79.40;101060.25;5041427;28;20144;-73
2022/06/05 12:20:06;;;;;;;8.15;7.35;;;;;;;19.25;79.86;101057.94;5049067;28;20128;-73
2022/06/05 12:22:42;;;;;;;9.10;7.07;;;;;;;19.30;80.70;101054.97;5048234;28;20045;-73
2022/06/05 12:25:36;;;;;;;9.80;8.15;;;;;;;19.31;80.21;101048.69;5043931;28;20045;-71
2022/06/05 12:28:19;;;;;;;8.32;7.10;;;;;;;19.38;80.42;101055.38;5047255;28;20037;-71
2022/06/05 12:31:15;;;;;;;8.30;6.43;;;;;;;19.49;80.50;101058.19;5048820;28;20042;-70
2022/06/05 12:34:10;;;;;;;8.88;7.03;;;;;;;19.54;80.48;101057.88;5049385;28;20046;-71